Time;durP1;ratioP1;P1;durP2;ratioP2;P2;SDS_P1;SDS_P2;PMS_P1;PMS_P2;Temp;Humidity;BMP_temperature;BMP_pressure;BME280_temperature;BME280_humidity;BME280_pressure;Samples;Min_cycle;Max_cycle;Signal;HPM_P1;HPM_P2
2023/12/04 00:00:03;;;;;;;39.17;5.45;;;;;;;;;;5085804;28;20768;-52
2023/12/04 00:02:30;;;;;;;40.30;5.70;;;;;;;;;;5091531;28;20382;-46
2023/12/04 00:04:56;;;;;;;34.47;5.00;;;;;;;;;;5090633;28;20413;-48
2023/12/04 00:07:23;;;;;;;66.35;7.80;;;;;;;;;;5091084;28;20421;-46
2023/12/04 00:09:50;;;;;;;167.40;16.55;;;;;;;;;;5090337;28;20527;-46
2023/12/04 00:12:17;;;;;;;146.35;15.65;;;;;;;;;;5091004;28;20741;-46
2023/12/04 00:14:44;;;;;;;101.65;12.48;;;;;;;;;;5090824;28;20394;-46
2023/12/04 00:17:11;;;;;;;91.63;12.05;;;;;;;;;;5090801;28;20427;-46
2023/12/04 00:19:39;;;;;;;46.72;7.40;;;;;;;;;;5089457;28;20423;-46
2023/12/04 00:22:06;;;;;;;42.55;6.53;;;;;;;;;;5090055;28;20439;-46
2023/12/04 00:24:33;;;;;;;47.47;7.07;;;;;;;;;;5090872;28;20481;-46
2023/12/04 00:27:00;;;;;;;56.55;8.77;;;;;;;;;;5084118;28;20421;-46
2023/12/04 00:29:27;;;;;;;51.78;7.45;;;;;;;;;;5083708;28;20876;-46
2023/12/04 00:31:54;;;;;;;54.45;7.97;;;;;;;;;;5090111;28;20390;-45
2023/12/04 00:34:21;;;;;;;39.78;6.25;;;;;;;;;;5090735;28;20386;-45
2023/12/04 00:36:48;;;;;;;41.97;6.70;;;;;;;;;;5090258;28;20439;-46
2023/12/04 00:39:15;;;;;;;37.95;6.70;;;;;;;;;;5090524;28;20476;-46
2023/12/04 00:41:42;;;;;;;51.83;8.00;;;;;;;;;;5089569;28;20397;-46
2023/12/04 00:44:09;;;;;;;49.95;7.20;;;;;;;;;;5090655;28;20888;-45
2023/12/04 00:46:36;;;;;;;57.67;9.10;;;;;;;;;;5079489;28;20415;-45
2023/12/04 00:49:03;;;;;;;71.45;10.98;;;;;;;;;;5070390;28;20897;-45
2023/12/04 00:51:30;;;;;;;63.10;11.20;;;;;;;;;;5078641;28;20415;-48
2023/12/04 00:53:57;;;;;;;68.35;12.07;;;;;;;;;;5078874;28;20483;-46
2023/12/04 00:56:24;;;;;;;67.50;11.55;;;;;;;;;;5084406;28;20410;-45
2023/12/04 00:58:51;;;;;;;89.47;13.07;;;;;;;;;;5079278;28;20910;-45
2023/12/04 01:01:18;;;;;;;78.85;13.90;;;;;;;;;;5089615;28;20804;-44
2023/12/04 01:03:45;;;;;;;85.97;13.73;;;;;;;;;;5068428;28;20426;-44
2023/12/04 01:06:22;;;;;;;96.40;14.33;;;;;;;;;;5085397;28;20401;-48
2023/12/04 01:08:49;;;;;;;81.30;13.00;;;;;;;;;;5082662;28;20395;-47
2023/12/04 01:11:19;;;;;;;83.60;13.50;;;;;;;;;;5086200;28;21097;-52
2023/12/04 01:13:47;;;;;;;85.90;13.38;;;;;;;;;;5088458;28;20393;-47
2023/12/04 01:16:14;;;;;;;87.40;14.80;;;;;;;;;;5084932;28;20398;-52
2023/12/04 01:18:42;;;;;;;87.88;14.60;;;;;;;;;;5075685;28;20402;-50
2023/12/04 01:21:09;;;;;;;92.15;15.68;;;;;;;;;;5083464;28;20391;-50
2023/12/04 01:23:36;;;;;;;82.07;14.68;;;;;;;;;;5079666;28;20450;-48
2023/12/04 01:26:04;;;;;;;88.75;15.18;;;;;;;;;;5081838;28;20757;-48
2023/12/04 01:28:31;;;;;;;82.15;15.05;;;;;;;;;;5080689;28;20409;-46
2023/12/04 01:30:58;;;;;;;79.13;14.55;;;;;;;;;;5084185;28;20397;-49
2023/12/04 01:33:25;;;;;;;70.55;13.63;;;;;;;;;;5083300;28;20408;-47
2023/12/04 01:35:52;;;;;;;77.37;15.73;;;;;;;;;;5089638;28;20394;-49
2023/12/04 01:38:19;;;;;;;109.40;19.20;;;;;;;;;;5093258;28;20439;-48
2023/12/04 01:40:46;;;;;;;91.25;16.92;;;;;;;;;;5088509;28;20404;-47
2023/12/04 01:43:14;;;;;;;87.17;18.57;;;;;;;;;;5089262;28;20393;-46
2023/12/04 01:45:42;;;;;;;89.72;17.90;;;;;;;;;;5093216;28;20748;-51
2023/12/04 01:48:09;;;;;;;80.90;16.63;;;;;;;;;;5093338;28;20421;-46
2023/12/04 01:50:37;;;;;;;94.72;18.02;;;;;;;;;;5089531;28;20434;-58
2023/12/04 01:53:04;;;;;;;95.17;19.20;;;;;;;;;;5088145;28;20385;-52
2023/12/04 01:55:33;;;;;;;120.72;25.25;;;;;;;;;;5077149;28;20892;-49
2023/12/04 01:58:00;;;;;;;134.18;27.70;;;;;;;;;;5077461;28;20412;-52
2023/12/04 02:00:28;;;;;;;130.02;27.92;;;;;;;;;;5083718;28;20430;-51
2023/12/04 02:02:55;;;;;;;198.45;42.05;;;;;;;;;;5079533;28;20451;-54
2023/12/04 02:05:22;;;;;;;211.50;47.25;;;;;;;;;;5087752;28;20524;-54
2023/12/04 02:07:49;;;;;;;249.25;52.78;;;;;;;;;;5091941;28;20947;-50
2023/12/04 02:10:16;;;;;;;268.50;60.17;;;;;;;;;;5093092;28;20426;-50
2023/12/04 02:12:43;;;;;;;308.65;67.07;;;;;;;;;;5092663;28;20855;-50
2023/12/04 02:15:10;;;;;;;295.58;66.18;;;;;;;;;;5077772;28;20765;-50
2023/12/04 02:17:37;;;;;;;300.45;66.53;;;;;;;;;;5092997;28;20780;-54
2023/12/04 02:20:05;;;;;;;307.20;68.75;;;;;;;;;;5093101;28;20437;-53
2023/12/04 02:22:32;;;;;;;329.67;73.68;;;;;;;;;;5092707;28;20412;-50
2023/12/04 02:25:00;;;;;;;332.53;75.80;;;;;;;;;;5092906;28;20404;-53
2023/12/04 02:27:33;;;;;;;341.75;78.05;;;;;;;;;;5088967;28;20421;-48
2023/12/04 02:30:02;;;;;;;340.30;79.00;;;;;;;;;;5085134;28;20820;-49
2023/12/04 02:32:30;;;;;;;326.58;75.72;;;;;;;;;;5076381;28;20404;-56
2023/12/04 02:34:58;;;;;;;325.88;76.22;;;;;;;;;;5093990;28;20485;-44
2023/12/04 02:37:25;;;;;;;296.98;70.20;;;;;;;;;;5088691;28;20480;-51
2023/12/04 02:39:54;;;;;;;276.73;67.38;;;;;;;;;;5085413;28;20388;-48
2023/12/04 02:42:24;;;;;;;272.80;64.57;;;;;;;;;;5086431;28;20405;-48
2023/12/04 02:44:52;;;;;;;275.17;66.50;;;;;;;;;;5087631;28;20413;-52
2023/12/04 02:47:19;;;;;;;255.70;62.30;;;;;;;;;;5089388;28;20425;-49
2023/12/04 02:49:46;;;;;;;259.00;64.43;;;;;;;;;;5091770;28;20450;-54
2023/12/04 02:52:13;;;;;;;245.32;58.97;;;;;;;;;;5082436;28;20888;-45
2023/12/04 02:54:39;;;;;;;260.77;63.55;;;;;;;;;;5092278;28;20623;-49
2023/12/04 02:57:07;;;;;;;247.73;61.40;;;;;;;;;;5084997;28;20417;-46
2023/12/04 02:59:34;;;;;;;265.38;65.13;;;;;;;;;;5089507;28;20393;-48
2023/12/04 03:02:01;;;;;;;216.90;54.63;;;;;;;;;;5089271;28;20394;-46
2023/12/04 03:04:32;;;;;;;219.95;54.95;;;;;;;;;;5091057;28;20414;-47
2023/12/04 03:06:59;;;;;;;204.75;54.92;;;;;;;;;;5091576;28;20425;-48
2023/12/04 03:09:26;;;;;;;227.25;58.78;;;;;;;;;;5091770;28;20475;-50
2023/12/04 03:11:53;;;;;;;206.85;53.65;;;;;;;;;;5091452;28;20386;-47
2023/12/04 03:14:20;;;;;;;199.60;53.40;;;;;;;;;;5091598;28;20502;-50
2023/12/04 03:16:47;;;;;;;196.68;52.35;;;;;;;;;;5091363;28;20413;-47
2023/12/04 03:19:14;;;;;;;194.07;50.63;;;;;;;;;;5091517;28;20425;-49
2023/12/04 03:21:41;;;;;;;193.02;50.78;;;;;;;;;;5091542;28;20402;-46
2023/12/04 03:24:08;;;;;;;178.25;48.47;;;;;;;;;;5090929;28;20448;-48
2023/12/04 03:26:36;;;;;;;180.00;48.43;;;;;;;;;;5090729;28;21275;-51
2023/12/04 03:29:03;;;;;;;169.25;45.53;;;;;;;;;;5091131;28;20397;-49
2023/12/04 03:31:31;;;;;;;175.23;46.80;;;;;;;;;;5091382;28;20393;-49
2023/12/04 03:33:58;;;;;;;162.18;42.88;;;;;;;;;;5091300;28;20394;-52
2023/12/04 03:36:25;;;;;;;178.63;46.33;;;;;;;;;;5091408;28;20439;-52
2023/12/04 03:38:52;;;;;;;159.05;43.80;;;;;;;;;;5089454;28;20505;-52
2023/12/04 03:41:19;;;;;;;154.40;44.08;;;;;;;;;;5091074;28;20398;-48
2023/12/04 03:43:46;;;;;;;154.43;41.97;;;;;;;;;;5091042;28;20417;-48
2023/12/04 03:46:13;;;;;;;148.32;40.13;;;;;;;;;;5091026;28;20390;-46
2023/12/04 03:48:40;;;;;;;144.73;40.95;;;;;;;;;;5090946;28;20401;-48
2023/12/04 03:51:07;;;;;;;148.43;39.65;;;;;;;;;;5090767;28;20447;-48
2023/12/04 03:53:34;;;;;;;132.13;39.40;;;;;;;;;;5090819;28;20396;-46
2023/12/04 03:56:02;;;;;;;133.55;38.53;;;;;;;;;;5086712;28;20401;-47
2023/12/04 03:58:29;;;;;;;130.45;36.97;;;;;;;;;;5090894;28;20401;-46
2023/12/04 04:00:55;;;;;;;124.78;35.30;;;;;;;;;;5090760;28;20390;-46
2023/12/04 04:03:23;;;;;;;125.55;35.17;;;;;;;;;;5087993;28;20409;-47
2023/12/04 04:05:50;;;;;;;115.13;34.88;;;;;;;;;;5090614;28;20730;-47
2023/12/04 04:08:17;;;;;;;127.03;34.65;;;;;;;;;;5090615;28;20990;-47
2023/12/04 04:10:45;;;;;;;116.38;33.10;;;;;;;;;;5090320;28;20398;-55
2023/12/04 04:13:15;;;;;;;110.35;31.90;;;;;;;;;;5090794;28;20471;-52
2023/12/04 04:15:42;;;;;;;111.35;31.38;;;;;;;;;;5089667;28;20399;-47
2023/12/04 04:18:09;;;;;;;103.57;30.70;;;;;;;;;;5090516;28;20893;-47
2023/12/04 04:20:36;;;;;;;106.18;31.48;;;;;;;;;;5089783;28;20452;-55
2023/12/04 04:23:03;;;;;;;106.43;30.97;;;;;;;;;;5090428;28;20397;-52
2023/12/04 04:25:30;;;;;;;90.55;28.75;;;;;;;;;;5090524;28;20390;-51
2023/12/04 04:27:57;;;;;;;100.20;28.80;;;;;;;;;;5090137;28;20425;-50
2023/12/04 04:30:24;;;;;;;89.28;28.08;;;;;;;;;;5087716;28;20451;-51
2023/12/04 04:32:51;;;;;;;95.10;28.98;;;;;;;;;;5090977;28;20378;-50
2023/12/04 04:35:18;;;;;;;89.60;26.73;;;;;;;;;;5091031;28;20464;-53
2023/12/04 04:37:45;;;;;;;83.68;26.35;;;;;;;;;;5090945;28;20378;-49
2023/12/04 04:40:12;;;;;;;86.57;25.85;;;;;;;;;;5090831;28;21204;-51
2023/12/04 04:42:39;;;;;;;89.53;26.37;;;;;;;;;;5090902;28;20385;-49
2023/12/04 04:45:06;;;;;;;85.68;25.52;;;;;;;;;;5090921;28;20381;-51
2023/12/04 04:47:33;;;;;;;84.18;25.30;;;;;;;;;;5090844;28;21044;-50
2023/12/04 04:50:00;;;;;;;79.57;24.65;;;;;;;;;;5090729;28;20417;-51
2023/12/04 04:52:27;;;;;;;82.10;24.45;;;;;;;;;;5090832;28;20405;-51
2023/12/04 04:54:54;;;;;;;78.70;24.38;;;;;;;;;;5090747;28;20377;-52
2023/12/04 04:57:21;;;;;;;74.75;23.17;;;;;;;;;;5090813;28;20378;-48
2023/12/04 04:59:48;;;;;;;75.03;22.50;;;;;;;;;;5090815;28;20377;-50
2023/12/04 05:02:14;;;;;;;67.20;21.90;;;;;;;;;;5090694;28;20469;-50
2023/12/04 05:04:41;;;;;;;69.80;22.10;;;;;;;;;;5090214;28;20489;-51
2023/12/04 05:07:08;;;;;;;63.47;20.63;;;;;;;;;;5089853;28;20401;-49
2023/12/04 05:09:35;;;;;;;66.25;20.10;;;;;;;;;;5090602;28;20839;-49
2023/12/04 05:12:02;;;;;;;63.65;18.73;;;;;;;;;;5090396;28;20427;-49
2023/12/04 05:14:29;;;;;;;60.72;18.40;;;;;;;;;;5090533;28;20471;-48
2023/12/04 05:16:56;;;;;;;59.15;18.13;;;;;;;;;;5090512;28;20390;-51
2023/12/04 05:19:23;;;;;;;57.40;17.70;;;;;;;;;;5090392;28;20389;-50
2023/12/04 05:21:50;;;;;;;57.58;17.23;;;;;;;;;;5090415;28;20370;-50
2023/12/04 05:24:17;;;;;;;51.33;16.05;;;;;;;;;;5090066;28;20458;-50
2023/12/04 05:26:44;;;;;;;50.88;15.98;;;;;;;;;;5090385;28;20495;-54
2023/12/04 05:29:11;;;;;;;49.72;15.73;;;;;;;;;;5090365;28;20405;-51
2023/12/04 05:31:38;;;;;;;50.83;15.25;;;;;;;;;;5090248;28;20382;-54
2023/12/04 05:34:05;;;;;;;50.25;14.93;;;;;;;;;;5090309;28;20421;-51
2023/12/04 05:36:32;;;;;;;46.58;13.90;;;;;;;;;;5090303;28;20864;-54
2023/12/04 05:38:59;;;;;;;49.45;14.65;;;;;;;;;;5090351;28;20378;-51
2023/12/04 05:41:26;;;;;;;42.40;13.50;;;;;;;;;;5090266;28;20518;-50
2023/12/04 05:43:53;;;;;;;43.83;13.68;;;;;;;;;;5090283;28;20743;-53
2023/12/04 05:46:20;;;;;;;44.60;12.87;;;;;;;;;;5090182;28;20568;-49
2023/12/04 05:48:47;;;;;;;40.75;11.82;;;;;;;;;;5090122;28;20434;-50
2023/12/04 05:51:15;;;;;;;38.40;11.70;;;;;;;;;;5090007;28;20386;-55
2023/12/04 05:53:42;;;;;;;36.93;11.33;;;;;;;;;;5090014;28;20907;-50
2023/12/04 05:56:09;;;;;;;33.58;10.77;;;;;;;;;;5089993;28;20810;-51
2023/12/04 05:58:36;;;;;;;36.60;10.68;;;;;;;;;;5088669;28;20880;-49
2023/12/04 06:01:03;;;;;;;34.72;10.15;;;;;;;;;;5088439;28;20891;-49
2023/12/04 06:03:30;;;;;;;31.85;10.60;;;;;;;;;;5089485;28;20886;-52
2023/12/04 06:05:57;;;;;;;35.72;10.27;;;;;;;;;;5089930;28;20798;-49
2023/12/04 06:08:24;;;;;;;27.93;9.70;;;;;;;;;;5090031;28;20417;-49
2023/12/04 06:10:51;;;;;;;32.95;9.93;;;;;;;;;;5089890;28;20390;-50
2023/12/04 06:13:18;;;;;;;29.35;9.25;;;;;;;;;;5089872;28;20383;-48
2023/12/04 06:15:45;;;;;;;29.92;9.05;;;;;;;;;;5089993;28;20390;-49
2023/12/04 06:18:12;;;;;;;28.85;9.05;;;;;;;;;;5093037;28;20389;-49
2023/12/04 06:20:39;;;;;;;25.90;8.55;;;;;;;;;;5093477;28;20386;-50
2023/12/04 06:23:06;;;;;;;29.25;8.38;;;;;;;;;;5093272;28;20394;-49
2023/12/04 06:25:33;;;;;;;28.45;7.88;;;;;;;;;;5093595;28;20386;-50
2023/12/04 06:28:00;;;;;;;27.55;8.18;;;;;;;;;;5093464;28;20437;-48
2023/12/04 06:30:27;;;;;;;23.67;7.50;;;;;;;;;;5093083;28;20398;-49
2023/12/04 06:32:55;;;;;;;21.77;7.53;;;;;;;;;;5093382;28;20794;-51
2023/12/04 06:35:22;;;;;;;24.45;7.30;;;;;;;;;;5093271;28;20382;-48
2023/12/04 06:37:49;;;;;;;21.75;7.07;;;;;;;;;;5093372;28;20386;-49
2023/12/04 06:40:17;;;;;;;21.40;6.93;;;;;;;;;;5093230;28;20457;-51
2023/12/04 06:42:44;;;;;;;22.45;6.85;;;;;;;;;;5093326;28;20969;-50
2023/12/04 06:45:11;;;;;;;23.58;6.80;;;;;;;;;;5093297;28;20378;-51
2023/12/04 06:47:38;;;;;;;16.63;6.10;;;;;;;;;;5093132;28;20412;-52
2023/12/04 06:50:05;;;;;;;23.20;6.27;;;;;;;;;;5092972;28;20393;-54
2023/12/04 06:52:32;;;;;;;19.80;5.90;;;;;;;;;;5093222;28;20912;-51
2023/12/04 06:54:59;;;;;;;22.83;6.18;;;;;;;;;;5093095;28;20411;-54
2023/12/04 06:57:26;;;;;;;17.95;5.35;;;;;;;;;;5093091;28;20382;-49
2023/12/04 06:59:53;;;;;;;18.75;5.43;;;;;;;;;;5092882;28;20390;-49
2023/12/04 07:02:21;;;;;;;21.30;5.90;;;;;;;;;;5092798;28;20795;-50
2023/12/04 07:04:47;;;;;;;16.63;5.03;;;;;;;;;;5092756;28;20489;-49
2023/12/04 07:07:14;;;;;;;16.05;4.93;;;;;;;;;;5092701;28;20479;-50
2023/12/04 07:09:41;;;;;;;19.58;5.30;;;;;;;;;;5092737;28;20369;-51
2023/12/04 07:12:08;;;;;;;17.73;5.20;;;;;;;;;;5092627;28;20382;-50
2023/12/04 07:14:35;;;;;;;17.85;5.10;;;;;;;;;;5092474;28;20464;-50
2023/12/04 07:17:02;;;;;;;18.50;4.63;;;;;;;;;;5092571;28;20386;-49
2023/12/04 07:19:30;;;;;;;15.05;4.65;;;;;;;;;;5092514;28;20929;-51
2023/12/04 07:21:57;;;;;;;16.30;4.67;;;;;;;;;;5092499;28;20382;-50
2023/12/04 07:24:26;;;;;;;12.32;4.32;;;;;;;;;;5092474;28;20381;-51
2023/12/04 07:26:53;;;;;;;18.23;4.47;;;;;;;;;;5092252;28;20406;-49
2023/12/04 07:29:20;;;;;;;15.88;4.35;;;;;;;;;;5107449;28;20393;-49
2023/12/04 07:31:47;;;;;;;12.27;4.22;;;;;;;;;;5092275;28;20468;-49
2023/12/04 07:34:14;;;;;;;14.02;4.32;;;;;;;;;;5092281;28;20384;-49
2023/12/04 07:36:41;;;;;;;12.88;3.83;;;;;;;;;;5092098;28;20399;-49
2023/12/04 07:39:09;;;;;;;12.52;3.92;;;;;;;;;;5092184;28;20838;-48
2023/12/04 07:41:35;;;;;;;13.23;4.00;;;;;;;;;;5091946;28;20413;-49
2023/12/04 07:44:03;;;;;;;15.93;4.13;;;;;;;;;;5092095;28;20459;-49
2023/12/04 07:46:30;;;;;;;16.00;3.78;;;;;;;;;;5091825;28;20417;-49
2023/12/04 07:48:57;;;;;;;10.63;3.78;;;;;;;;;;5092016;28;20465;-49
2023/12/04 07:51:24;;;;;;;11.63;3.72;;;;;;;;;;5091958;28;20848;-50
2023/12/04 07:53:51;;;;;;;13.60;3.70;;;;;;;;;;5091815;28;20389;-52
2023/12/04 07:56:19;;;;;;;11.23;4.03;;;;;;;;;;5091853;28;20397;-50
2023/12/04 07:58:46;;;;;;;9.52;3.40;;;;;;;;;;5091526;28;20390;-50
2023/12/04 08:01:12;;;;;;;11.63;3.40;;;;;;;;;;5091497;28;20444;-49
2023/12/04 08:03:39;;;;;;;13.15;3.80;;;;;;;;;;5091447;28;20900;-49
2023/12/04 08:06:07;;;;;;;9.48;3.50;;;;;;;;;;5091428;28;20377;-48
2023/12/04 08:08:34;;;;;;;11.05;3.40;;;;;;;;;;5091523;28;20378;-49
2023/12/04 08:11:01;;;;;;;11.18;3.38;;;;;;;;;;5091298;28;20928;-49
2023/12/04 08:13:28;;;;;;;10.85;2.90;;;;;;;;;;5091533;28;20374;-49
2023/12/04 08:15:55;;;;;;;8.07;2.90;;;;;;;;;;5091453;28;20378;-49
2023/12/04 08:18:22;;;;;;;10.30;3.10;;;;;;;;;;5091459;28;20373;-48
2023/12/04 08:20:48;;;;;;;13.93;2.83;;;;;;;;;;5091354;28;20374;-49
2023/12/04 08:23:15;;;;;;;10.90;3.00;;;;;;;;;;5091543;28;20713;-49
2023/12/04 08:25:43;;;;;;;10.13;2.75;;;;;;;;;;5091250;28;20423;-48
2023/12/04 08:28:10;;;;;;;10.95;3.03;;;;;;;;;;5091206;28;20424;-49
2023/12/04 08:30:36;;;;;;;9.63;2.67;;;;;;;;;;5091178;28;20374;-49
2023/12/04 08:33:04;;;;;;;8.02;2.83;;;;;;;;;;5091108;28;20445;-48
2023/12/04 08:35:31;;;;;;;9.48;2.70;;;;;;;;;;5091082;28;20397;-48
2023/12/04 08:37:58;;;;;;;11.05;3.10;;;;;;;;;;5091068;28;20388;-50
2023/12/04 08:40:25;;;;;;;9.32;2.53;;;;;;;;;;5090066;28;20393;-48
2023/12/04 08:42:53;;;;;;;9.30;2.63;;;;;;;;;;5090894;28;20370;-48
2023/12/04 08:45:20;;;;;;;7.35;2.47;;;;;;;;;;5090854;28;20409;-49
2023/12/04 08:47:47;;;;;;;8.27;2.75;;;;;;;;;;5090798;28;20417;-48
2023/12/04 08:50:14;;;;;;;5.55;2.25;;;;;;;;;;5090713;28;20386;-49
2023/12/04 08:52:41;;;;;;;8.18;2.30;;;;;;;;;;5090909;28;20422;-49
2023/12/04 08:55:08;;;;;;;9.85;2.83;;;;;;;;;;5090914;28;20442;-50
2023/12/04 08:57:35;;;;;;;6.90;2.33;;;;;;;;;;5090628;28;20760;-49
2023/12/04 09:00:03;;;;;;;7.20;2.40;;;;;;;;;;5090648;28;20409;-48
2023/12/04 09:02:31;;;;;;;7.53;2.27;;;;;;;;;;5090715;28;20390;-50
2023/12/04 09:04:58;;;;;;;7.35;2.20;;;;;;;;;;5090483;28;20896;-48
2023/12/04 09:07:25;;;;;;;6.72;2.20;;;;;;;;;;5090854;28;20753;-49
2023/12/04 09:09:52;;;;;;;7.47;2.20;;;;;;;;;;5090544;28;20864;-48
2023/12/04 09:12:19;;;;;;;7.50;2.15;;;;;;;;;;5090644;28;20955;-50
2023/12/04 09:14:46;;;;;;;7.80;2.20;;;;;;;;;;5090514;28;20756;-48
2023/12/04 09:17:14;;;;;;;6.82;1.98;;;;;;;;;;5090468;28;20397;-49
2023/12/04 09:19:41;;;;;;;6.22;2.05;;;;;;;;;;5090321;28;20910;-49
2023/12/04 09:22:08;;;;;;;10.10;2.28;;;;;;;;;;5090353;28;20405;-50
2023/12/04 09:24:35;;;;;;;9.30;2.10;;;;;;;;;;5090509;28;20398;-49
2023/12/04 09:27:02;;;;;;;9.20;2.20;;;;;;;;;;5090426;28;20405;-49
2023/12/04 09:29:29;;;;;;;6.20;2.10;;;;;;;;;;5090401;28;21023;-51
2023/12/04 09:31:56;;;;;;;6.63;2.03;;;;;;;;;;5090510;28;20374;-49
2023/12/04 09:34:24;;;;;;;6.43;1.90;;;;;;;;;;5090435;28;20409;-49
2023/12/04 09:36:51;;;;;;;7.10;2.30;;;;;;;;;;5090359;28;20398;-49
2023/12/04 09:39:18;;;;;;;7.25;2.05;;;;;;;;;;5089898;28;20439;-50
2023/12/04 09:41:46;;;;;;;5.47;1.90;;;;;;;;;;5090298;28;20390;-48
2023/12/04 09:44:13;;;;;;;6.60;1.85;;;;;;;;;;5090182;28;20386;-48
2023/12/04 09:46:40;;;;;;;8.32;2.15;;;;;;;;;;5090215;28;20417;-50
2023/12/04 09:49:08;;;;;;;12.40;2.30;;;;;;;;;;5090223;28;20431;-49
2023/12/04 09:51:35;;;;;;;10.18;2.05;;;;;;;;;;5090628;28;20856;-48
2023/12/04 09:54:04;;;;;;;7.40;1.98;;;;;;;;;;5094220;28;20721;-48
2023/12/04 09:56:34;;;;;;;9.23;1.98;;;;;;;;;;5094064;28;20420;-50
2023/12/04 09:59:01;;;;;;;9.87;2.10;;;;;;;;;;5094101;28;20744;-48
2023/12/04 10:01:31;;;;;;;6.28;1.73;;;;;;;;;;5094016;28;20374;-49
2023/12/04 10:03:59;;;;;;;8.43;2.03;;;;;;;;;;5093889;28;20764;-49
2023/12/04 10:06:29;;;;;;;8.45;2.00;;;;;;;;;;5109362;28;20384;-48
2023/12/04 10:09:00;;;;;;;9.20;2.10;;;;;;;;;;5093913;28;20394;-50
2023/12/04 10:11:27;;;;;;;8.02;1.90;;;;;;;;;;5093810;28;20386;-48
2023/12/04 10:13:54;;;;;;;7.67;2.10;;;;;;;;;;5109429;28;20390;-51
2023/12/04 10:16:34;;;;;;;8.23;1.97;;;;;;;;;;5093692;28;20906;-49
2023/12/04 10:19:17;;;;;;;8.48;2.20;;;;;;;;;;5093630;28;21017;-48
2023/12/04 10:21:46;;;;;;;9.32;1.90;;;;;;;;;;5093561;28;20377;-48
2023/12/04 10:24:14;;;;;;;8.00;1.98;;;;;;;;;;5093536;28;20386;-49
2023/12/04 10:26:51;;;;;;;10.15;2.20;;;;;;;;;;5093674;28;20749;-48
2023/12/04 10:29:18;;;;;;;11.20;2.10;;;;;;;;;;5093448;28;20417;-51
2023/12/04 10:31:45;;;;;;;9.50;1.97;;;;;;;;;;5093494;28;20381;-49
2023/12/04 10:34:12;;;;;;;8.38;1.92;;;;;;;;;;5093464;28;20385;-49
2023/12/04 10:36:39;;;;;;;7.03;1.95;;;;;;;;;;5093499;28;20385;-49
2023/12/04 10:39:06;;;;;;;9.43;2.00;;;;;;;;;;5093405;28;20477;-48
2023/12/04 10:41:33;;;;;;;7.22;1.60;;;;;;;;;;5093252;28;20401;-48
2023/12/04 10:44:00;;;;;;;11.30;1.88;;;;;;;;;;5093286;28;20370;-48
2023/12/04 10:46:29;;;;;;;7.65;2.00;;;;;;;;;;5093059;28;20725;-49
2023/12/04 10:48:58;;;;;;;8.75;1.98;;;;;;;;;;5093053;28;20394;-50
2023/12/04 10:51:27;;;;;;;6.40;1.80;;;;;;;;;;5092903;28;20397;-48
2023/12/04 10:53:54;;;;;;;8.83;1.90;;;;;;;;;;5092891;28;20895;-51
2023/12/04 10:56:26;;;;;;;9.75;1.88;;;;;;;;;;5092595;28;20790;-49
2023/12/04 10:58:54;;;;;;;6.05;1.50;;;;;;;;;;5092921;28;20445;-53
2023/12/04 11:01:24;;;;;;;7.60;1.75;;;;;;;;;;5092803;28;20483;-52
2023/12/04 11:03:56;;;;;;;9.02;2.10;;;;;;;;;;5091561;28;20406;-48
2023/12/04 11:06:25;;;;;;;10.13;2.20;;;;;;;;;;5091203;28;20398;-50
2023/12/04 11:08:53;;;;;;;12.27;2.10;;;;;;;;;;5092100;28;20401;-50
2023/12/04 11:11:25;;;;;;;7.45;1.90;;;;;;;;;;5091780;28;20390;-51
2023/12/04 11:13:55;;;;;;;9.60;2.00;;;;;;;;;;5089751;28;20524;-50
2023/12/04 11:16:28;;;;;;;9.38;2.30;;;;;;;;;;5089517;28;20386;-51
2023/12/04 11:19:16;;;;;;;12.00;2.42;;;;;;;;;;5091273;28;20484;-52
2023/12/04 11:21:44;;;;;;;10.30;1.95;;;;;;;;;;5090583;28;20405;-51
2023/12/04 11:24:11;;;;;;;12.18;2.00;;;;;;;;;;5090994;28;20393;-50
2023/12/04 11:26:39;;;;;;;9.73;2.10;;;;;;;;;;5091005;28;20426;-51
2023/12/04 11:29:06;;;;;;;12.23;2.03;;;;;;;;;;5091184;28;20390;-49
2023/12/04 11:31:33;;;;;;;9.32;2.00;;;;;;;;;;5089796;28;20573;-49
2023/12/04 11:34:05;;;;;;;10.60;2.42;;;;;;;;;;5090812;28;20501;-48
2023/12/04 11:36:32;;;;;;;10.93;2.20;;;;;;;;;;5091081;28;20493;-50
2023/12/04 11:39:02;;;;;;;11.27;2.30;;;;;;;;;;5090644;28;20434;-54
2023/12/04 11:41:31;;;;;;;11.60;2.00;;;;;;;;;;5090789;28;20786;-51
2023/12/04 11:43:58;;;;;;;9.50;1.80;;;;;;;;;;5091358;28;20413;-49
2023/12/04 11:46:26;;;;;;;12.77;2.00;;;;;;;;;;5090682;28;20394;-49
2023/12/04 11:48:57;;;;;;;14.57;2.17;;;;;;;;;;5063551;22;20788;-46
2023/12/04 11:51:39;;;;;;;13.13;2.25;;;;;;;;;;5009950;28;20414;-48
2023/12/04 11:54:10;;;;;;;8.00;2.20;;;;;;;;;;5029443;28;20427;-44
2023/12/04 11:56:37;;;;;;;11.73;2.38;;;;;;;;;;5030966;28;20403;-41
2023/12/04 11:59:05;;;;;;;9.90;2.15;;;;;;;;;;5030588;28;20434;-43
2023/12/04 12:01:39;;;;;;;12.30;2.22;;;;;;;;;;5030668;28;20430;-44
2023/12/04 12:04:10;;;;;;;8.80;1.60;;;;;;;;;;5027576;28;20399;-42
2023/12/04 12:06:37;;;;;;;13.43;2.10;;;;;;;;;;5030611;28;20427;-40
2023/12/04 12:09:07;;;;;;;17.85;2.10;;;;;;;;;;5029987;28;20403;-42
2023/12/04 12:11:33;;;;;;;13.05;1.90;;;;;;;;;;5030300;28;20392;-46
2023/12/04 12:14:01;;;;;;;11.32;1.73;;;;;;;;;;5026568;28;20402;-43
2023/12/04 12:16:28;;;;;;;11.90;2.20;;;;;;;;;;5030443;28;20402;-43
2023/12/04 12:18:55;;;;;;;12.02;2.03;;;;;;;;;;5030521;28;20399;-43
2023/12/04 12:21:22;;;;;;;12.25;2.25;;;;;;;;;;5030280;28;20391;-43
2023/12/04 12:23:49;;;;;;;11.27;1.88;;;;;;;;;;5028898;28;20395;-43
2023/12/04 12:26:16;;;;;;;7.72;1.98;;;;;;;;;;5030067;28;20395;-40
2023/12/04 12:28:43;;;;;;;9.38;1.90;;;;;;;;;;5030364;28;20873;-40
2023/12/04 12:31:10;;;;;;;16.13;2.35;;;;;;;;;;5029699;28;20873;-40
2023/12/04 12:33:37;;;;;;;8.32;2.03;;;;;;;;;;5029951;28;20765;-44
2023/12/04 12:36:04;;;;;;;15.80;2.13;;;;;;;;;;5028772;28;20529;-43
2023/12/04 12:38:35;;;;;;;15.35;2.22;;;;;;;;;;5030002;28;20402;-41
2023/12/04 12:41:02;;;;;;;9.05;1.98;;;;;;;;;;5026959;28;20410;-41
2023/12/04 12:43:29;;;;;;;17.25;2.08;;;;;;;;;;5029229;28;20475;-42
2023/12/04 12:45:56;;;;;;;12.47;2.20;;;;;;;;;;5028714;28;20406;-42
2023/12/04 12:48:23;;;;;;;11.70;1.83;;;;;;;;;;5029711;28;20445;-44
2023/12/04 12:50:50;;;;;;;12.77;1.95;;;;;;;;;;5029251;28;20405;-40
2023/12/04 12:53:19;;;;;;;12.40;2.07;;;;;;;;;;5030600;28;20390;-42
2023/12/04 12:55:45;;;;;;;13.45;2.30;;;;;;;;;;5029025;28;20399;-42
2023/12/04 12:58:20;;;;;;;11.52;1.90;;;;;;;;;;5030559;28;20420;-42
2023/12/04 13:00:47;;;;;;;10.55;2.03;;;;;;;;;;5029991;28;20390;-42
2023/12/04 13:03:17;;;;;;;11.30;2.10;;;;;;;;;;5030428;28;20394;-43
2023/12/04 13:05:45;;;;;;;12.00;2.03;;;;;;;;;;5030021;28;20391;-43
2023/12/04 13:08:12;;;;;;;12.10;1.75;;;;;;;;;;5029130;28;20395;-43
2023/12/04 13:10:39;;;;;;;11.75;1.95;;;;;;;;;;5029858;28;20398;-41
2023/12/04 13:13:11;;;;;;;9.10;1.90;;;;;;;;;;5030487;28;20835;-42
2023/12/04 13:15:38;;;;;;;13.80;2.17;;;;;;;;;;5030397;28;20399;-42
2023/12/04 13:18:05;;;;;;;14.97;2.40;;;;;;;;;;5030234;28;20379;-42
2023/12/04 13:20:33;;;;;;;11.68;2.00;;;;;;;;;;5030499;28;20490;-42
2023/12/04 13:23:00;;;;;;;9.10;1.80;;;;;;;;;;5030479;28;20418;-42
2023/12/04 13:25:27;;;;;;;12.60;2.03;;;;;;;;;;5030301;28;20872;-42
2023/12/04 13:27:54;;;;;;;12.45;1.90;;;;;;;;;;5033123;28;20869;-43
2023/12/04 13:30:21;;;;;;;10.27;1.90;;;;;;;;;;5034369;28;20418;-42
2023/12/04 13:32:50;;;;;;;11.82;1.83;;;;;;;;;;5034357;28;20390;-42
2023/12/04 13:35:17;;;;;;;11.95;2.00;;;;;;;;;;5034175;28;20397;-42
2023/12/04 13:37:44;;;;;;;10.40;1.80;;;;;;;;;;5034076;28;20395;-42
2023/12/04 13:40:15;;;;;;;11.75;1.95;;;;;;;;;;5034266;28;20462;-42
2023/12/04 13:45:28;;;;;;;13.02;2.00;;;;;;;;;;5034293;28;20537;-42
2023/12/04 13:47:55;;;;;;;10.13;1.67;;;;;;;;;;5015907;28;20453;-42
2023/12/04 13:50:22;;;;;;;15.77;2.17;;;;;;;;;;5034089;28;20888;-42
2023/12/04 13:52:56;;;;;;;7.82;1.42;;;;;;;;;;5034112;28;20387;-43
2023/12/04 13:55:59;;;;;;;11.18;2.00;;;;;;;;;;5033810;28;20445;-42
2023/12/04 13:58:42;;;;;;;9.23;1.80;;;;;;;;;;5033518;28;20456;-42
2023/12/04 14:01:22;;;;;;;8.20;1.70;;;;;;;;;;5033726;28;20403;-42
2023/12/04 14:03:48;;;;;;;11.50;1.70;;;;;;;;;;5033841;28;20390;-43
2023/12/04 14:06:15;;;;;;;8.20;1.63;;;;;;;;;;5033818;28;20387;-42
2023/12/04 14:08:43;;;;;;;7.83;1.87;;;;;;;;;;5033546;28;20425;-41
2023/12/04 14:11:11;;;;;;;6.10;1.40;;;;;;;;;;5033710;28;20743;-42
2023/12/04 14:13:41;;;;;;;10.70;1.77;;;;;;;;;;5033614;28;20391;-41
2023/12/04 14:16:08;;;;;;;12.07;1.60;;;;;;;;;;5032988;28;20411;-42
2023/12/04 14:18:35;;;;;;;13.45;1.40;;;;;;;;;;5033503;28;20394;-42
2023/12/04 14:21:02;;;;;;;7.07;1.60;;;;;;;;;;5033562;28;20387;-42
2023/12/04 14:23:29;;;;;;;10.10;1.90;;;;;;;;;;5033486;28;20383;-42
2023/12/04 14:25:56;;;;;;;12.77;1.73;;;;;;;;;;5033480;28;20753;-42
2023/12/04 14:28:23;;;;;;;9.45;1.52;;;;;;;;;;5033253;28;20418;-42
2023/12/04 14:30:50;;;;;;;11.05;1.90;;;;;;;;;;5033300;28;20784;-42